Time;durP1;ratioP1;P1;durP2;ratioP2;P2;SDS_P1;SDS_P2;PMS_P1;PMS_P2;Temp;Humidity;BMP_temperature;BMP_pressure;BME280_temperature;BME280_humidity;BME280_pressure;Samples;Min_cycle;Max_cycle;Signal;HPM_P1;HPM_P2
2022/10/21 00:00:57;;;;;;;22.17;18.00;;;14.00;99.90;;;;;;5100413;28;20556;-65
2022/10/21 00:03:27;;;;;;;24.60;19.93;;;14.00;99.90;;;;;;5101502;28;20555;-64
2022/10/21 00:05:54;;;;;;;28.93;19.80;;;14.10;99.90;;;;;;5100663;28;20496;-65
2022/10/21 00:08:22;;;;;;;23.00;19.10;;;14.10;99.90;;;;;;5101056;28;20488;-65
2022/10/21 00:10:55;;;;;;;26.33;18.70;;;14.10;99.90;;;;;;5100857;28;20467;-65
2022/10/21 00:13:27;;;;;;;25.40;19.30;;;14.10;99.90;;;;;;5101232;28;20488;-65
2022/10/21 00:15:59;;;;;;;24.97;18.90;;;14.10;99.90;;;;;;5100457;28;20669;-65
2022/10/21 00:18:31;;;;;;;25.20;19.10;;;14.10;99.90;;;;;;5100943;28;20475;-65
2022/10/21 00:20:58;;;;;;;23.80;19.40;;;14.10;99.90;;;;;;5100975;28;20540;-65
2022/10/21 00:23:26;;;;;;;27.90;20.90;;;14.00;99.90;;;;;;5100808;28;20456;-65
2022/10/21 00:25:56;;;;;;;29.97;20.80;;;14.10;99.90;;;;;;5100601;28;20947;-65
2022/10/21 00:28:26;;;;;;;30.23;20.70;;;14.10;99.90;;;;;;5100574;28;20889;-65
2022/10/21 00:30:53;;;;;;;28.97;20.40;;;14.10;99.90;;;;;;5100600;28;20467;-64
2022/10/21 00:33:21;;;;;;;28.37;20.63;;;14.10;99.90;;;;;;5100088;28;20519;-65
2022/10/21 00:35:53;;;;;;;31.40;21.70;;;14.10;99.90;;;;;;5100540;28;20464;-65
2022/10/21 00:38:23;;;;;;;24.83;20.13;;;14.10;99.90;;;;;;5100519;28;20514;-65
2022/10/21 00:40:50;;;;;;;29.20;19.93;;;14.10;99.90;;;;;;5100708;28;20725;-65
2022/10/21 00:43:18;;;;;;;24.40;18.67;;;14.00;99.90;;;;;;5100423;28;20441;-65
2022/10/21 00:45:46;;;;;;;24.53;19.43;;;14.00;99.90;;;;;;5100252;28;20468;-65
2022/10/21 00:48:19;;;;;;;31.20;22.33;;;14.00;99.90;;;;;;5100387;28;20467;-65
2022/10/21 00:50:55;;;;;;;24.57;19.83;;;14.00;99.90;;;;;;5100482;28;20889;-65
2022/10/21 00:53:24;;;;;;;29.37;19.13;;;14.00;99.90;;;;;;5100085;28;20494;-65
2022/10/21 00:55:54;;;;;;;23.83;17.57;;;14.00;99.90;;;;;;5099729;28;20439;-64
2022/10/21 00:58:28;;;;;;;24.37;18.97;;;14.00;99.90;;;;;;5099518;28;20900;-64
2022/10/21 01:01:00;;;;;;;30.30;19.90;;;14.00;99.90;;;;;;5100184;28;20566;-64
2022/10/21 01:03:29;;;;;;;25.40;19.30;;;13.90;99.90;;;;;;5099689;28;20837;-64
2022/10/21 01:06:00;;;;;;;22.70;16.77;;;13.90;99.90;;;;;;5099787;28;20434;-64
2022/10/21 01:08:30;;;;;;;26.13;18.30;;;13.90;99.90;;;;;;5099063;28;20462;-64
2022/10/21 01:11:00;;;;;;;20.77;17.60;;;13.90;99.90;;;;;;5100122;28;20717;-64
2022/10/21 01:13:38;;;;;;;23.33;16.97;;;13.90;99.90;;;;;;5099783;28;20556;-65
2022/10/21 01:16:12;;;;;;;20.90;17.10;;;13.90;99.90;;;;;;5099760;28;20468;-64
2022/10/21 01:18:47;;;;;;;25.60;17.17;;;13.90;99.90;;;;;;5099587;28;20460;-64
2022/10/21 01:21:31;;;;;;;19.63;15.60;;;13.80;99.90;;;;;;5099793;28;20460;-64
2022/10/21 01:24:35;;;;;;;24.80;16.33;;;13.80;99.90;;;;;;5099230;28;20460;-64
2022/10/21 01:27:20;;;;;;;20.70;15.63;;;13.80;99.90;;;;;;5100154;28;20451;-64
2022/10/21 01:30:08;;;;;;;21.20;15.83;;;13.80;99.90;;;;;;5099293;28;20465;-64
2022/10/21 01:32:51;;;;;;;22.20;13.97;;;13.80;99.90;;;;;;5098932;28;20789;-64
2022/10/21 01:35:22;;;;;;;18.87;14.80;;;13.70;99.90;;;;;;5099689;28;20869;-64
2022/10/21 01:38:01;;;;;;;22.83;15.30;;;13.70;99.90;;;;;;5098853;28;20460;-64
2022/10/21 01:40:34;;;;;;;17.27;13.80;;;13.60;99.90;;;;;;5099172;28;20464;-64
2022/10/21 01:43:07;;;;;;;17.90;14.10;;;13.60;99.90;;;;;;5099491;28;20441;-64
2022/10/21 01:45:42;;;;;;;22.10;14.47;;;13.60;99.90;;;;;;5099347;28;20461;-64
2022/10/21 01:48:17;;;;;;;19.70;13.27;;;13.60;99.90;;;;;;5099077;28;20479;-64
2022/10/21 01:50:47;;;;;;;16.83;13.13;;;13.60;99.90;;;;;;5099431;28;20471;-64
2022/10/21 01:53:16;;;;;;;15.43;12.27;;;13.60;99.90;;;;;;5099331;28;20855;-64
2022/10/21 01:55:45;;;;;;;15.40;12.93;;;13.60;99.90;;;;;;5098757;28;20439;-64
2022/10/21 01:58:20;;;;;;;17.87;12.80;;;13.60;99.90;;;;;;5098853;28;20460;-64
2022/10/21 02:00:49;;;;;;;14.77;12.00;;;13.60;99.90;;;;;;5098343;28;20507;-63
2022/10/21 02:03:22;;;;;;;12.97;9.97;;;13.60;99.90;;;;;;5098804;28;20463;-64
2022/10/21 02:05:49;;;;;;;13.30;10.80;;;13.60;99.90;;;;;;5098714;28;20499;-63
2022/10/21 02:08:16;;;;;;;12.93;10.30;;;13.60;99.90;;;;;;5097859;28;20463;-64
2022/10/21 02:10:56;;;;;;;16.37;10.57;;;13.60;99.90;;;;;;5098880;28;20876;-64
2022/10/21 02:13:26;;;;;;;14.60;11.33;;;13.60;99.90;;;;;;5098641;28;20553;-64
2022/10/21 02:15:56;;;;;;;13.57;11.50;;;13.60;99.90;;;;;;5098531;28;20441;-64
2022/10/21 02:18:26;;;;;;;14.03;8.97;;;13.50;99.90;;;;;;5098567;28;20772;-63
2022/10/21 02:21:00;;;;;;;12.20;9.47;;;13.50;99.90;;;;;;5098901;28;20489;-63
2022/10/21 02:23:34;;;;;;;13.33;9.60;;;13.50;99.90;;;;;;5098828;28;20862;-63
2022/10/21 02:26:04;;;;;;;12.50;9.57;;;13.50;99.90;;;;;;5098463;28;20885;-64
2022/10/21 02:28:32;;;;;;;10.03;8.33;;;13.60;99.90;;;;;;5098861;28;20539;-63
2022/10/21 02:31:11;;;;;;;12.67;9.80;;;13.60;99.90;;;;;;5098379;28;20762;-63
2022/10/21 02:33:47;;;;;;;12.27;9.10;;;13.60;99.90;;;;;;5098297;28;20491;-64
2022/10/21 02:36:20;;;;;;;11.03;9.83;;;13.60;99.90;;;;;;5098052;28;20877;-63
2022/10/21 02:38:51;;;;;;;11.40;9.60;;;13.60;99.90;;;;;;5098354;28;20435;-64
2022/10/21 02:41:23;;;;;;;11.50;9.67;;;13.60;99.90;;;;;;5098223;28;20435;-63
2022/10/21 02:43:56;;;;;;;12.33;8.97;;;13.50;99.90;;;;;;5098138;28;20467;-64
2022/10/21 02:46:24;;;;;;;11.77;8.57;;;13.40;99.90;;;;;;5097762;28;20571;-63
2022/10/21 02:48:53;;;;;;;13.13;8.57;;;13.40;99.90;;;;;;5097987;28;20464;-63
2022/10/21 02:51:21;;;;;;;9.80;8.43;;;13.40;99.90;;;;;;5097782;28;20492;-64
2022/10/21 02:53:50;;;;;;;9.40;8.50;;;13.40;99.90;;;;;;5097681;28;20521;-64
2022/10/21 02:56:17;;;;;;;11.80;9.03;;;13.30;99.90;;;;;;5097770;28;20460;-63
2022/10/21 02:58:44;;;;;;;12.03;8.30;;;13.20;99.90;;;;;;5097699;28;20472;-64
2022/10/21 03:01:11;;;;;;;12.97;8.10;;;13.30;99.90;;;;;;5097913;28;20887;-63
2022/10/21 03:03:38;;;;;;;10.70;8.40;;;13.30;99.90;;;;;;5097506;28;20517;-64
2022/10/21 03:06:09;;;;;;;9.87;7.77;;;13.20;99.90;;;;;;5097349;28;20472;-64
2022/10/21 03:08:36;;;;;;;12.10;9.23;;;13.10;99.90;;;;;;5097491;28;20471;-64
2022/10/21 03:11:04;;;;;;;10.80;8.13;;;13.00;99.90;;;;;;5097714;28;20464;-64
2022/10/21 03:13:33;;;;;;;10.03;8.37;;;12.90;99.90;;;;;;5097639;28;20551;-63
2022/10/21 03:16:01;;;;;;;13.50;8.47;;;13.00;99.90;;;;;;5097164;28;20460;-64
2022/10/21 03:18:29;;;;;;;11.97;9.57;;;12.90;99.90;;;;;;5097355;28;20460;-63
2022/10/21 03:20:56;;;;;;;8.80;7.90;;;13.10;99.90;;;;;;5096311;28;20464;-63
2022/10/21 03:23:25;;;;;;;12.00;8.47;;;13.30;99.90;;;;;;5094439;28;21157;-64
2022/10/21 03:25:52;;;;;;;13.53;8.70;;;13.20;99.90;;;;;;5076681;28;20440;-64
2022/10/21 03:28:19;;;;;;;11.40;8.10;;;13.20;99.90;;;;;;5076433;28;20464;-63
2022/10/21 03:30:47;;;;;;;9.57;7.87;;;13.20;99.90;;;;;;5076905;28;20465;-63
2022/10/21 03:33:17;;;;;;;9.87;8.60;;;13.20;99.90;;;;;;5077353;28;20495;-63
2022/10/21 03:35:44;;;;;;;11.90;7.63;;;13.30;99.90;;;;;;5076843;28;20881;-63
2022/10/21 03:38:11;;;;;;;8.50;7.10;;;13.40;99.90;;;;;;5076644;28;20465;-63
2022/10/21 03:40:40;;;;;;;11.70;7.93;;;13.40;99.90;;;;;;5077045;28;20898;-63
2022/10/21 03:43:07;;;;;;;9.87;8.80;;;13.40;99.90;;;;;;5077143;28;20795;-64
2022/10/21 03:45:34;;;;;;;9.10;7.53;;;13.40;99.90;;;;;;5077372;28;20748;-63
2022/10/21 03:48:01;;;;;;;10.30;7.67;;;13.40;99.90;;;;;;5076715;28;20469;-63
2022/10/21 03:50:28;;;;;;;9.97;7.60;;;13.40;99.90;;;;;;5076895;28;20461;-63
2022/10/21 03:52:55;;;;;;;10.57;8.03;;;13.50;99.90;;;;;;5076813;28;20474;-63
2022/10/21 03:55:24;;;;;;;10.00;8.63;;;13.40;99.90;;;;;;5076982;28;20872;-63
2022/10/21 03:57:53;;;;;;;10.27;8.10;;;13.50;99.90;;;;;;5076637;28;20477;-63
2022/10/21 04:00:20;;;;;;;10.90;7.37;;;13.40;99.90;;;;;;5076052;28;20436;-63
2022/10/21 04:02:53;;;;;;;18.27;7.30;;;13.50;99.90;;;;;;5077018;28;20462;-63
2022/10/21 04:05:20;;;;;;;9.03;7.70;;;13.50;99.90;;;;;;5076986;28;20489;-64
2022/10/21 04:07:47;;;;;;;9.20;7.50;;;13.50;99.90;;;;;;5076651;28;20489;-63
2022/10/21 04:10:14;;;;;;;9.50;7.40;;;13.50;99.90;;;;;;5076537;28;20435;-63
2022/10/21 04:12:42;;;;;;;10.13;7.60;;;13.50;99.90;;;;;;5076547;28;20465;-63
2022/10/21 04:15:14;;;;;;;12.37;7.60;;;13.60;99.90;;;;;;5076807;28;20492;-63
2022/10/21 04:17:45;;;;;;;10.13;7.53;;;13.50;99.90;;;;;;5088417;28;20457;-63
2022/10/21 04:20:13;;;;;;;7.57;6.40;;;13.40;99.90;;;;;;5096799;28;20770;-63
2022/10/21 04:22:40;;;;;;;10.70;7.20;;;13.20;99.90;;;;;;5096814;28;20461;-63
2022/10/21 04:25:10;;;;;;;12.10;6.70;;;13.20;99.90;;;;;;5097019;28;20895;-63
2022/10/21 04:27:37;;;;;;;9.87;7.30;;;13.30;99.90;;;;;;5096505;28;20473;-63
2022/10/21 04:30:07;;;;;;;8.60;7.03;;;13.40;99.90;;;;;;5096551;28;20895;-63
2022/10/21 04:32:35;;;;;;;13.53;6.40;;;13.40;99.90;;;;;;5100061;28;20439;-63
2022/10/21 04:35:02;;;;;;;9.30;7.20;;;13.40;99.90;;;;;;5100684;28;20466;-62
2022/10/21 04:37:30;;;;;;;7.53;6.10;;;13.40;99.90;;;;;;5101082;28;20509;-63
2022/10/21 04:39:57;;;;;;;10.13;6.30;;;13.60;99.90;;;;;;5100326;28;20461;-63
2022/10/21 04:42:24;;;;;;;7.40;6.60;;;13.60;99.90;;;;;;5100208;28;20464;-64
2022/10/21 04:44:51;;;;;;;9.50;6.60;;;13.70;99.90;;;;;;5100479;28;20438;-63
2022/10/21 04:47:18;;;;;;;26.83;7.80;;;13.70;99.90;;;;;;5100386;28;20442;-63
2022/10/21 04:49:47;;;;;;;10.90;7.33;;;13.60;99.90;;;;;;5100492;28;20880;-63
2022/10/21 04:52:14;;;;;;;9.63;6.07;;;13.60;99.90;;;;;;5100388;28;20434;-63
2022/10/21 04:54:41;;;;;;;8.10;5.90;;;13.60;99.90;;;;;;5099957;28;20467;-63
2022/10/21 04:57:10;;;;;;;10.60;5.77;;;13.50;99.90;;;;;;5100300;28;20546;-63
2022/10/21 04:59:37;;;;;;;9.73;6.53;;;13.50;99.90;;;;;;5099054;28;20435;-63
2022/10/21 05:02:07;;;;;;;8.00;5.87;;;13.50;99.90;;;;;;5098793;28;20496;-63
2022/10/21 05:04:36;;;;;;;7.37;5.73;;;13.60;99.90;;;;;;5099716;28;20456;-63
2022/10/21 05:07:05;;;;;;;9.20;6.13;;;13.60;99.90;;;;;;5099126;28;20495;-63
2022/10/21 05:09:32;;;;;;;6.57;5.73;;;13.60;99.90;;;;;;5098808;28;20434;-63
2022/10/21 05:11:59;;;;;;;7.10;5.87;;;13.70;99.90;;;;;;5098787;28;20460;-63
2022/10/21 05:14:32;;;;;;;6.37;5.77;;;13.70;99.90;;;;;;5099352;28;20498;-63
2022/10/21 05:16:59;;;;;;;7.87;5.40;;;13.70;99.90;;;;;;5090849;28;20896;-64
2022/10/21 05:19:26;;;;;;;6.87;5.53;;;13.80;99.90;;;;;;5079314;28;20427;-63
2022/10/21 05:21:53;;;;;;;6.73;5.67;;;13.80;99.90;;;;;;5088647;28;20467;-63
2022/10/21 05:24:22;;;;;;;10.63;5.60;;;13.80;99.90;;;;;;5099112;28;20429;-63
2022/10/21 05:26:52;;;;;;;5.90;5.20;;;13.80;99.90;;;;;;5096559;28;20452;-63
2022/10/21 05:29:19;;;;;;;6.40;5.70;;;13.70;99.90;;;;;;5099260;28;20453;-63
2022/10/21 05:31:46;;;;;;;9.57;5.53;;;13.60;99.90;;;;;;5098292;28;20457;-63
2022/10/21 05:34:13;;;;;;;6.50;5.90;;;13.60;99.90;;;;;;5098537;28;20931;-63
2022/10/21 05:36:40;;;;;;;7.20;5.10;;;13.70;99.90;;;;;;5098611;28;20438;-63
2022/10/21 05:39:10;;;;;;;7.40;5.30;;;13.70;99.90;;;;;;5095268;28;20463;-63
2022/10/21 05:41:40;;;;;;;6.03;5.30;;;13.60;99.90;;;;;;5099489;28;20469;-65
2022/10/21 05:44:09;;;;;;;7.63;5.13;;;13.60;99.90;;;;;;5098989;28;20491;-65
2022/10/21 05:46:36;;;;;;;6.53;5.93;;;13.60;99.90;;;;;;5100273;28;20934;-65
2022/10/21 05:49:03;;;;;;;6.90;5.60;;;13.50;99.90;;;;;;5099029;28;20463;-65
2022/10/21 05:51:30;;;;;;;8.63;6.00;;;13.50;99.90;;;;;;5099662;28;20458;-65
2022/10/21 05:54:02;;;;;;;12.07;7.20;;;13.50;99.90;;;;;;5097614;28;20484;-65
2022/10/21 05:56:30;;;;;;;7.93;5.50;;;13.50;99.90;;;;;;5097256;28;20474;-65
2022/10/21 05:59:02;;;;;;;6.80;5.73;;;13.50;99.90;;;;;;5098527;28;20507;-65
2022/10/21 06:01:30;;;;;;;5.87;4.87;;;13.50;99.90;;;;;;5098611;28;20430;-64
2022/10/21 06:03:57;;;;;;;6.83;5.33;;;13.50;99.90;;;;;;5098565;28;20434;-64
2022/10/21 06:06:25;;;;;;;7.90;5.50;;;13.50;99.90;;;;;;5097790;28;20464;-64
2022/10/21 06:08:54;;;;;;;8.97;6.33;;;13.50;99.90;;;;;;5097087;28;20775;-65
2022/10/21 06:11:21;;;;;;;6.03;5.30;;;13.50;99.90;;;;;;5096572;28;20435;-65
2022/10/21 06:13:49;;;;;;;12.87;5.70;;;13.40;99.90;;;;;;5096933;28;20488;-65
2022/10/21 06:16:17;;;;;;;9.93;6.30;;;13.40;99.90;;;;;;5096084;28;20457;-64
2022/10/21 06:18:47;;;;;;;8.70;5.83;;;13.50;99.90;;;;;;5097528;28;20431;-65
2022/10/21 06:21:14;;;;;;;9.03;6.13;;;13.30;99.90;;;;;;5098788;28;20464;-65
2022/10/21 06:23:44;;;;;;;9.03;6.17;;;13.30;99.90;;;;;;5098103;28;20471;-65
2022/10/21 06:26:15;;;;;;;12.60;5.87;;;13.30;99.90;;;;;;5098207;28;20439;-65
2022/10/21 06:28:44;;;;;;;6.90;5.30;;;13.30;99.90;;;;;;5096260;28;20438;-65
2022/10/21 06:31:14;;;;;;;9.10;5.90;;;13.30;99.90;;;;;;5096167;28;20471;-65
2022/10/21 06:33:43;;;;;;;6.80;5.63;;;13.30;99.90;;;;;;5096339;28;20456;-65
2022/10/21 06:36:10;;;;;;;6.60;5.20;;;13.40;99.90;;;;;;5096879;28;20453;-64
2022/10/21 06:38:37;;;;;;;6.67;5.67;;;13.50;99.90;;;;;;5094476;28;20464;-65
2022/10/21 06:41:07;;;;;;;8.77;5.50;;;13.60;99.90;;;;;;5076921;28;20898;-65
2022/10/21 06:43:34;;;;;;;8.77;5.60;;;13.60;99.90;;;;;;5078633;28;20436;-65
2022/10/21 06:46:04;;;;;;;6.73;5.23;;;13.70;99.90;;;;;;5078059;28;20464;-65
2022/10/21 06:48:32;;;;;;;7.17;4.77;;;13.70;99.90;;;;;;5078091;28;20861;-65
2022/10/21 06:51:03;;;;;;;10.53;5.80;;;13.80;99.90;;;;;;5078593;28;20461;-65
2022/10/21 06:53:31;;;;;;;8.00;5.10;;;13.80;99.90;;;;;;5078334;28;20461;-65
2022/10/21 06:56:03;;;;;;;8.67;5.87;;;13.80;99.90;;;;;;5076737;28;20460;-65
2022/10/21 06:58:31;;;;;;;6.20;4.80;;;13.80;99.90;;;;;;5078047;28;20443;-65
2022/10/21 07:00:58;;;;;;;5.70;4.17;;;13.80;99.90;;;;;;5079049;28;20481;-65
2022/10/21 07:03:26;;;;;;;6.30;5.00;;;13.90;99.90;;;;;;5078496;28;20548;-65
2022/10/21 07:06:00;;;;;;;8.13;5.40;;;14.00;99.90;;;;;;5078240;28;20436;-65
2022/10/21 07:08:32;;;;;;;7.77;4.77;;;14.10;99.90;;;;;;5077458;28;20490;-65
2022/10/21 07:11:00;;;;;;;5.33;4.80;;;14.00;99.90;;;;;;5076112;28;20435;-65
2022/10/21 07:13:27;;;;;;;5.67;4.33;;;14.00;99.90;;;;;;5076280;28;20531;-65
2022/10/21 07:16:01;;;;;;;6.70;5.00;;;14.00;99.90;;;;;;5076722;28;20497;-65
2022/10/21 07:18:29;;;;;;;5.83;4.90;;;14.10;99.90;;;;;;5076760;28;20530;-65
2022/10/21 07:21:02;;;;;;;8.43;5.20;;;14.20;99.90;;;;;;5077525;28;20532;-65
2022/10/21 07:23:31;;;;;;;6.30;5.17;;;14.30;99.90;;;;;;5077214;28;20470;-65
2022/10/21 07:25:58;;;;;;;7.30;4.70;;;14.40;99.90;;;;;;5076421;28;20464;-65
2022/10/21 07:28:25;;;;;;;5.37;4.70;;;14.40;99.90;;;;;;5076966;28;20435;-65
2022/10/21 07:30:52;;;;;;;7.00;4.83;;;14.50;99.90;;;;;;5077119;28;20440;-65
2022/10/21 07:33:19;;;;;;;6.23;4.83;;;14.50;99.90;;;;;;5077249;28;20464;-65
2022/10/21 07:35:47;;;;;;;6.07;5.23;;;14.50;99.90;;;;;;5088236;28;20544;-64
2022/10/21 07:38:16;;;;;;;17.13;4.97;;;14.60;99.90;;;;;;5096406;28;20552;-64
2022/10/21 07:40:45;;;;;;;5.70;4.70;;;14.60;99.90;;;;;;5096316;28;20509;-65
2022/10/21 07:43:12;;;;;;;5.67;5.07;;;14.60;99.90;;;;;;5091125;28;20438;-64
2022/10/21 07:45:41;;;;;;;4.90;4.33;;;14.60;99.90;;;;;;5096943;28;20453;-64
2022/10/21 07:48:09;;;;;;;7.07;5.13;;;14.60;99.90;;;;;;5096904;28;20467;-64
2022/10/21 07:50:39;;;;;;;5.10;4.43;;;14.60;99.90;;;;;;5097478;28;20456;-64
2022/10/21 07:53:10;;;;;;;8.63;5.70;;;14.70;99.90;;;;;;5097169;28;20464;-64
2022/10/21 07:55:37;;;;;;;5.13;4.23;;;14.70;99.90;;;;;;5096013;28;20798;-64
2022/10/21 07:58:08;;;;;;;5.57;4.50;;;14.70;99.90;;;;;;5094439;28;20495;-64
2022/10/21 08:00:35;;;;;;;6.50;5.20;;;14.80;99.90;;;;;;5094193;28;20765;-64
2022/10/21 08:03:03;;;;;;;5.43;4.83;;;14.80;99.90;;;;;;5095064;28;20456;-64
2022/10/21 08:05:33;;;;;;;8.17;5.20;;;14.80;99.90;;;;;;5096974;28;20555;-64
2022/10/21 08:08:00;;;;;;;8.40;4.60;;;14.90;99.90;;;;;;5099137;28;20867;-64
2022/10/21 08:10:27;;;;;;;7.00;5.60;;;14.90;99.90;;;;;;5083043;28;20454;-64
2022/10/21 08:12:57;;;;;;;6.57;5.10;;;14.90;99.90;;;;;;5099424;28;20459;-64
2022/10/21 08:15:25;;;;;;;7.70;4.90;;;14.90;99.90;;;;;;5100921;28;20458;-64
2022/10/21 08:17:52;;;;;;;5.63;5.03;;;14.80;99.90;;;;;;5099555;28;20585;-64
2022/10/21 08:20:21;;;;;;;6.97;5.40;;;14.90;99.90;;;;;;5098488;28;20475;-64
2022/10/21 08:22:48;;;;;;;5.60;3.90;;;14.90;99.90;;;;;;5097576;28;20460;-64
2022/10/21 08:25:18;;;;;;;7.20;5.20;;;14.90;99.90;;;;;;5101932;28;20434;-64
2022/10/21 08:27:45;;;;;;;7.33;5.57;;;15.00;99.90;;;;;;5101002;28;20468;-64
2022/10/21 08:30:14;;;;;;;5.90;4.70;;;15.00;99.90;;;;;;5100833;28;20460;-64
2022/10/21 08:32:45;;;;;;;8.33;5.73;;;15.00;99.90;;;;;;5101822;28;20514;-63
2022/10/21 08:35:12;;;;;;;6.87;4.30;;;15.00;99.90;;;;;;5101984;28;20467;-63
2022/10/21 08:37:39;;;;;;;10.00;6.60;;;15.00;99.90;;;;;;5101384;28;20427;-64
2022/10/21 08:40:09;;;;;;;7.23;5.60;;;15.00;99.90;;;;;;5100396;28;20919;-64
2022/10/21 08:42:43;;;;;;;9.47;6.17;;;15.00;99.90;;;;;;5099520;28;20434;-69
2022/10/21 08:45:25;;;;;;;11.37;6.37;;;14.90;99.90;;;;;;5100596;28;20460;-68
2022/10/21 08:47:59;;;;;;;11.27;6.43;;;14.80;99.90;;;;;;5099867;28;20464;-65
2022/10/21 08:50:33;;;;;;;11.03;6.40;;;14.80;99.90;;;;;;5099856;28;20460;-67
2022/10/21 08:53:08;;;;;;;11.33;7.17;;;14.70;99.90;;;;;;5099866;28;20435;-67
2022/10/21 08:55:38;;;;;;;9.57;5.67;;;14.70;99.90;;;;;;5097920;28;20486;-63
2022/10/21 08:58:10;;;;;;;9.90;5.93;;;14.70;99.90;;;;;;5098492;28;21028;-64
2022/10/21 09:00:44;;;;;;;11.27;6.20;;;14.70;99.90;;;;;;5098724;28;20460;-63
2022/10/21 09:03:20;;;;;;;9.43;5.80;;;14.70;99.90;;;;;;5099554;28;20464;-63
2022/10/21 09:06:01;;;;;;;13.20;7.07;;;14.70;99.90;;;;;;5098548;28;20527;-63
2022/10/21 09:08:35;;;;;;;8.07;6.47;;;14.70;99.90;;;;;;5098507;28;20828;-64
2022/10/21 09:11:10;;;;;;;16.37;7.70;;;14.70;99.90;;;;;;5098871;28;20547;-65
2022/10/21 09:13:55;;;;;;;8.67;6.57;;;14.70;99.90;;;;;;5099704;28;20946;-65
2022/10/21 09:16:33;;;;;;;10.40;6.83;;;14.80;99.90;;;;;;5099062;28;20975;-65
2022/10/21 09:19:13;;;;;;;7.20;6.00;;;14.70;99.90;;;;;;5080612;28;20435;-65
2022/10/21 09:21:54;;;;;;;9.70;6.40;;;14.80;99.90;;;;;;5099206;28;20430;-63
2022/10/21 09:24:31;;;;;;;10.40;6.80;;;14.80;99.90;;;;;;5099552;28;20460;-62
2022/10/21 09:27:00;;;;;;;8.40;6.70;;;14.80;99.90;;;;;;5098700;28;20489;-62
2022/10/21 09:29:31;;;;;;;8.40;5.90;;;14.80;99.90;;;;;;5099934;28;20764;-63
2022/10/21 09:32:08;;;;;;;9.80;6.07;;;14.80;99.90;;;;;;5099409;28;20442;-62
2022/10/21 09:34:47;;;;;;;9.43;7.20;;;14.80;99.90;;;;;;5099108;28;20435;-63
2022/10/21 09:37:28;;;;;;;7.47;6.43;;;14.80;99.90;;;;;;5098621;28;20555;-61
2022/10/21 09:40:03;;;;;;;8.23;6.30;;;14.80;99.90;;;;;;5097785;28;20431;-62
2022/10/21 09:42:30;;;;;;;13.47;6.77;;;14.80;99.90;;;;;;5096366;28;20451;-62
2022/10/21 09:44:59;;;;;;;8.00;6.10;;;14.80;99.90;;;;;;5098397;28;20465;-62
2022/10/21 09:47:26;;;;;;;9.60;7.50;;;14.80;99.90;;;;;;5099223;28;20460;-62
2022/10/21 09:49:58;;;;;;;6.10;5.50;;;14.80;99.90;;;;;;5099179;28;20456;-62
2022/10/21 09:52:31;;;;;;;8.30;5.33;;;14.90;99.90;;;;;;5099203;28;20873;-63
2022/10/21 09:55:01;;;;;;;12.67;6.60;;;14.90;99.90;;;;;;5098490;28;20493;-62
2022/10/21 09:57:40;;;;;;;7.00;6.30;;;14.80;99.90;;;;;;5099339;28;20456;-63
2022/10/21 10:00:09;;;;;;;7.87;6.57;;;14.90;99.90;;;;;;5098382;28;20464;-64
2022/10/21 10:02:42;;;;;;;13.13;6.00;;;15.00;99.90;;;;;;5098547;28;20464;-64
2022/10/21 10:05:42;;;;;;;6.57;5.87;;;15.00;99.90;;;;;;5097452;28;21475;-64
2022/10/21 10:08:32;;;;;;;8.23;5.80;;;15.10;99.90;;;;;;5099018;28;20512;-64
2022/10/21 10:11:21;;;;;;;8.23;5.40;;;15.10;99.90;;;;;;5098316;28;20538;-64
2022/10/21 10:13:50;;;;;;;9.93;5.50;;;15.10;99.90;;;;;;5092787;28;20447;-64
2022/10/21 10:16:23;;;;;;;5.70;5.00;;;15.20;99.90;;;;;;5098627;28;20821;-64
2022/10/21 10:18:54;;;;;;;4.70;4.03;;;15.40;99.90;;;;;;5098995;28;20431;-63
2022/10/21 10:21:26;;;;;;;7.40;5.20;;;15.30;99.90;;;;;;5098553;28;20518;-63
2022/10/21 10:23:56;;;;;;;6.83;5.00;;;15.30;99.90;;;;;;5098428;28;20465;-63
2022/10/21 10:26:28;;;;;;;8.27;5.17;;;15.40;99.90;;;;;;5098359;28;20541;-63
2022/10/21 10:29:02;;;;;;;7.27;4.60;;;15.40;99.90;;;;;;5098055;28;20467;-63
2022/10/21 10:31:33;;;;;;;5.83;4.57;;;15.50;99.90;;;;;;5097405;28;20527;-63
2022/10/21 10:34:06;;;;;;;8.37;5.03;;;15.50;99.90;;;;;;5098509;28;20484;-63
2022/10/21 10:36:37;;;;;;;6.67;5.10;;;15.60;99.90;;;;;;5098704;28;20993;-62
2022/10/21 10:39:08;;;;;;;9.40;5.37;;;15.70;99.90;;;;;;5099275;28;20460;-63
2022/10/21 10:41:39;;;;;;;8.43;5.60;;;15.70;99.90;;;;;;5098370;28;20468;-62
2022/10/21 10:44:25;;;;;;;7.83;5.90;;;15.80;99.90;;;;;;5098819;28;20468;-62
2022/10/21 10:46:58;;;;;;;6.20;5.30;;;15.90;99.90;;;;;;5097865;28;20438;-62
2022/10/21 10:49:27;;;;;;;5.93;5.00;;;16.00;99.90;;;;;;5098227;28;20471;-62
2022/10/21 10:52:20;;;;;;;10.87;5.50;;;16.00;99.90;;;;;;5098314;28;21027;-62
2022/10/21 10:55:15;;;;;;;7.93;5.83;;;16.00;99.90;;;;;;5098409;28;20435;-62
2022/10/21 10:57:45;;;;;;;8.37;5.87;;;16.10;99.90;;;;;;5098407;28;20456;-62
2022/10/21 11:00:17;;;;;;;7.93;4.50;;;16.00;99.90;;;;;;5097472;28;20460;-62
2022/10/21 11:02:52;;;;;;;6.77;4.10;;;16.00;99.90;;;;;;5097547;28;20435;-62
2022/10/21 11:05:26;;;;;;;5.43;4.63;;;15.90;99.90;;;;;;5092312;28;20988;-62
2022/10/21 11:07:57;;;;;;;6.00;3.87;;;15.90;99.90;;;;;;5096076;28;20480;-63
2022/10/21 11:10:34;;;;;;;6.80;4.40;;;15.90;99.90;;;;;;5097808;28;20524;-62
2022/10/21 11:13:03;;;;;;;5.57;4.10;;;15.90;99.90;;;;;;5094160;28;20478;-62
2022/10/21 11:15:52;;;;;;;6.70;4.20;;;15.80;99.90;;;;;;5096265;28;20507;-62
2022/10/21 11:18:27;;;;;;;7.07;5.17;;;15.80;99.90;;;;;;5096579;28;20767;-62
2022/10/21 11:21:05;;;;;;;4.70;4.10;;;15.80;99.90;;;;;;5097601;28;20445;-62
2022/10/21 11:23:50;;;;;;;6.53;4.20;;;15.70;99.90;;;;;;5094594;28;20507;-62
2022/10/21 11:26:29;;;;;;;5.93;3.70;;;15.70;99.90;;;;;;5097272;28;20464;-62
2022/10/21 11:29:08;;;;;;;4.77;3.97;;;15.70;99.90;;;;;;5098358;28;20464;-63
2022/10/21 11:31:43;;;;;;;4.30;3.70;;;15.70;99.90;;;;;;5097929;28;20438;-64
2022/10/21 11:34:20;;;;;;;9.70;3.70;;;15.70;99.90;;;;;;5095815;28;20434;-63
2022/10/21 11:37:02;;;;;;;5.17;3.90;;;15.70;99.90;;;;;;5096501;28;20470;-64
2022/10/21 11:39:43;;;;;;;6.53;3.70;;;15.80;99.90;;;;;;5096500;28;20464;-63
2022/10/21 11:42:19;;;;;;;6.30;4.70;;;15.80;99.90;;;;;;5096093;28;20460;-64
2022/10/21 11:45:05;;;;;;;4.50;3.43;;;15.80;99.90;;;;;;5095378;28;20472;-63
2022/10/21 11:47:42;;;;;;;4.80;4.20;;;15.90;99.90;;;;;;5097801;28;20897;-64
2022/10/21 11:50:22;;;;;;;4.93;3.53;;;15.90;99.90;;;;;;5096032;28;20462;-63
2022/10/21 11:53:11;;;;;;;6.53;4.50;;;15.90;99.90;;;;;;5097001;28;20464;-63
2022/10/21 11:55:47;;;;;;;4.93;3.90;;;16.00;99.90;;;;;;5097389;28;20574;-63
2022/10/21 11:58:29;;;;;;;4.60;3.67;;;16.10;99.90;;;;;;5097132;28;20550;-63
2022/10/21 12:01:14;;;;;;;5.57;4.40;;;16.20;99.90;;;;;;5096315;28;20888;-63
2022/10/21 12:03:59;;;;;;;6.03;3.67;;;16.40;99.90;;;;;;5097286;28;21000;-63
2022/10/21 12:06:37;;;;;;;6.87;3.37;;;16.60;99.90;;;;;;5097223;28;20430;-63
2022/10/21 12:09:12;;;;;;;8.37;4.27;;;16.60;99.90;;;;;;5097579;28;20464;-63
2022/10/21 12:11:45;;;;;;;4.80;4.30;;;16.70;99.90;;;;;;5096929;28;20459;-62
2022/10/21 12:14:25;;;;;;;6.57;3.90;;;16.80;99.90;;;;;;5096325;28;20881;-62
2022/10/21 12:16:56;;;;;;;5.93;3.50;;;16.80;99.90;;;;;;5096721;28;20902;-62
2022/10/21 12:19:25;;;;;;;5.10;3.83;;;16.80;99.90;;;;;;5097156;28;20804;-62
2022/10/21 12:21:54;;;;;;;5.57;3.50;;;17.00;99.90;;;;;;5088099;28;20457;-62
2022/10/21 12:24:28;;;;;;;5.40;3.93;;;17.00;99.90;;;;;;5076675;28;20469;-63
2022/10/21 12:27:07;;;;;;;4.70;3.90;;;17.20;99.90;;;;;;5090473;28;20755;-63
2022/10/21 12:29:50;;;;;;;4.93;4.20;;;17.40;99.90;;;;;;5095196;28;20522;-63
2022/10/21 12:32:25;;;;;;;7.30;3.70;;;17.50;99.90;;;;;;5096530;28;20460;-63
2022/10/21 12:34:54;;;;;;;4.43;3.40;;;17.60;99.90;;;;;;5096417;28;20530;-63
2022/10/21 12:37:43;;;;;;;7.03;3.30;;;17.90;99.90;;;;;;5096243;28;20487;-63
2022/10/21 12:40:14;;;;;;;3.67;3.10;;;18.30;99.90;;;;;;5096788;28;20770;-63
2022/10/21 12:42:48;;;;;;;5.17;3.40;;;18.50;99.90;;;;;;5096653;28;20900;-63
2022/10/21 12:45:32;;;;;;;5.47;3.80;;;19.00;99.90;;;;;;5095897;28;20529;-64
2022/10/21 12:48:00;;;;;;;6.83;2.97;;;19.00;99.90;;;;;;5095252;28;20468;-63
2022/10/21 12:50:30;;;;;;;3.50;2.87;;;18.80;1.00;;;;;;5096315;28;20916;-63
2022/10/21 12:53:19;;;;;;;7.47;3.53;;;18.80;1.00;;;;;;5096985;28;20472;-63
2022/10/21 12:55:50;;;;;;;4.67;2.83;;;18.90;1.00;;;;;;5099989;28;20460;-63
2022/10/21 12:58:30;;;;;;;5.10;3.20;;;19.00;1.00;;;;;;5100102;28;20483;-63
2022/10/21 13:01:01;;;;;;;4.73;3.50;;;19.10;1.00;;;;;;5100283;28;20805;-63
2022/10/21 13:03:55;;;;;;;5.33;2.90;;;18.70;1.00;;;;;;5100396;28;20513;-64